sensor_id;sensor_type;location;lat;lon;timestamp;P1;durP1;ratioP1;P2;durP2;ratioP2
3050;SDS011;1535;51.098;6.414;2024-03-08T00:00:04;15.10;;;14.60;;
3050;SDS011;1535;51.098;6.414;2024-03-08T00:02:34;15.30;;;14.80;;
3050;SDS011;1535;51.098;6.414;2024-03-08T00:05:02;15.20;;;14.70;;
3050;SDS011;1535;51.098;6.414;2024-03-08T00:07:30;15.30;;;14.80;;
3050;SDS011;1535;51.098;6.414;2024-03-08T00:09:57;14.83;;;14.33;;
3050;SDS011;1535;51.098;6.414;2024-03-08T00:12:26;14.83;;;14.33;;
3050;SDS011;1535;51.098;6.414;2024-03-08T00:14:53;14.50;;;14.00;;
3050;SDS011;1535;51.098;6.414;2024-03-08T00:17:21;14.40;;;13.90;;
3050;SDS011;1535;51.098;6.414;2024-03-08T00:19:48;14.67;;;14.17;;
3050;SDS011;1535;51.098;6.414;2024-03-08T00:22:16;15.10;;;14.60;;
3050;SDS011;1535;51.098;6.414;2024-03-08T00:24:43;15.10;;;14.60;;
3050;SDS011;1535;51.098;6.414;2024-03-08T00:27:10;14.77;;;14.27;;
3050;SDS011;1535;51.098;6.414;2024-03-08T00:29:38;14.87;;;14.37;;
3050;SDS011;1535;51.098;6.414;2024-03-08T00:32:06;15.80;;;15.20;;
3050;SDS011;1535;51.098;6.414;2024-03-08T00:34:34;15.23;;;14.70;;
3050;SDS011;1535;51.098;6.414;2024-03-08T00:37:03;15.50;;;14.90;;
3050;SDS011;1535;51.098;6.414;2024-03-08T00:39:30;14.80;;;14.30;;
3050;SDS011;1535;51.098;6.414;2024-03-08T00:41:58;15.33;;;14.83;;
3050;SDS011;1535;51.098;6.414;2024-03-08T00:44:25;15.60;;;15.00;;
3050;SDS011;1535;51.098;6.414;2024-03-08T00:46:54;15.57;;;14.97;;
3050;SDS011;1535;51.098;6.414;2024-03-08T00:49:24;15.30;;;14.77;;
3050;SDS011;1535;51.098;6.414;2024-03-08T00:51:51;15.10;;;14.60;;
3050;SDS011;1535;51.098;6.414;2024-03-08T00:54:18;15.23;;;14.70;;
3050;SDS011;1535;51.098;6.414;2024-03-08T00:56:45;15.20;;;14.70;;
3050;SDS011;1535;51.098;6.414;2024-03-08T00:59:12;15.33;;;14.77;;
3050;SDS011;1535;51.098;6.414;2024-03-08T01:01:40;15.40;;;14.83;;
3050;SDS011;1535;51.098;6.414;2024-03-08T01:04:10;15.50;;;14.90;;
3050;SDS011;1535;51.098;6.414;2024-03-08T01:06:37;14.93;;;14.43;;
3050;SDS011;1535;51.098;6.414;2024-03-08T01:09:04;15.27;;;14.70;;
3050;SDS011;1535;51.098;6.414;2024-03-08T01:11:32;15.73;;;15.13;;
3050;SDS011;1535;51.098;6.414;2024-03-08T01:14:00;15.40;;;14.80;;
3050;SDS011;1535;51.098;6.414;2024-03-08T01:16:27;15.07;;;14.57;;
3050;SDS011;1535;51.098;6.414;2024-03-08T01:18:54;14.97;;;14.47;;
3050;SDS011;1535;51.098;6.414;2024-03-08T01:21:23;14.70;;;14.20;;
3050;SDS011;1535;51.098;6.414;2024-03-08T01:23:50;14.50;;;14.00;;
3050;SDS011;1535;51.098;6.414;2024-03-08T01:26:17;14.60;;;14.10;;
3050;SDS011;1535;51.098;6.414;2024-03-08T01:28:44;14.30;;;13.80;;
3050;SDS011;1535;51.098;6.414;2024-03-08T01:31:11;14.07;;;13.57;;
3050;SDS011;1535;51.098;6.414;2024-03-08T01:33:38;14.87;;;14.37;;
3050;SDS011;1535;51.098;6.414;2024-03-08T01:36:06;14.40;;;13.90;;
3050;SDS011;1535;51.098;6.414;2024-03-08T01:38:35;14.90;;;14.40;;
3050;SDS011;1535;51.098;6.414;2024-03-08T01:41:02;13.80;;;13.40;;
3050;SDS011;1535;51.098;6.414;2024-03-08T01:43:29;13.63;;;13.23;;
3050;SDS011;1535;51.098;6.414;2024-03-08T01:45:57;13.67;;;13.27;;
3050;SDS011;1535;51.098;6.414;2024-03-08T01:48:26;14.33;;;13.83;;
3050;SDS011;1535;51.098;6.414;2024-03-08T01:50:54;14.03;;;13.57;;
3050;SDS011;1535;51.098;6.414;2024-03-08T01:53:22;14.23;;;13.73;;
3050;SDS011;1535;51.098;6.414;2024-03-08T01:55:52;14.60;;;14.10;;
3050;SDS011;1535;51.098;6.414;2024-03-08T01:58:20;14.30;;;13.80;;
3050;SDS011;1535;51.098;6.414;2024-03-08T02:00:48;14.80;;;14.30;;
3050;SDS011;1535;51.098;6.414;2024-03-08T02:03:16;14.13;;;13.67;;
3050;SDS011;1535;51.098;6.414;2024-03-08T02:05:43;14.40;;;13.90;;
3050;SDS011;1535;51.098;6.414;2024-03-08T02:08:10;14.53;;;14.03;;
3050;SDS011;1535;51.098;6.414;2024-03-08T02:10:39;13.90;;;13.50;;
3050;SDS011;1535;51.098;6.414;2024-03-08T02:13:08;14.47;;;13.97;;
3050;SDS011;1535;51.098;6.414;2024-03-08T02:15:51;14.70;;;14.20;;
3050;SDS011;1535;51.098;6.414;2024-03-08T02:18:18;14.87;;;14.37;;
3050;SDS011;1535;51.098;6.414;2024-03-08T02:20:46;14.27;;;13.77;;
3050;SDS011;1535;51.098;6.414;2024-03-08T02:23:14;14.50;;;14.00;;
3050;SDS011;1535;51.098;6.414;2024-03-08T02:25:41;14.40;;;13.90;;
3050;SDS011;1535;51.098;6.414;2024-03-08T02:28:09;14.83;;;14.33;;
3050;SDS011;1535;51.098;6.414;2024-03-08T02:30:37;14.20;;;13.70;;
3050;SDS011;1535;51.098;6.414;2024-03-08T02:33:04;14.10;;;13.60;;
3050;SDS011;1535;51.098;6.414;2024-03-08T02:35:32;14.53;;;14.03;;
3050;SDS011;1535;51.098;6.414;2024-03-08T02:38:01;14.33;;;13.83;;
3050;SDS011;1535;51.098;6.414;2024-03-08T02:40:28;15.00;;;14.50;;
3050;SDS011;1535;51.098;6.414;2024-03-08T02:42:57;14.07;;;13.57;;
3050;SDS011;1535;51.098;6.414;2024-03-08T02:45:24;14.10;;;13.60;;
3050;SDS011;1535;51.098;6.414;2024-03-08T02:47:51;14.53;;;14.03;;
3050;SDS011;1535;51.098;6.414;2024-03-08T02:50:18;14.70;;;14.20;;
3050;SDS011;1535;51.098;6.414;2024-03-08T02:52:47;14.80;;;14.30;;
3050;SDS011;1535;51.098;6.414;2024-03-08T02:55:16;15.10;;;14.60;;
3050;SDS011;1535;51.098;6.414;2024-03-08T02:57:43;14.57;;;14.07;;
3050;SDS011;1535;51.098;6.414;2024-03-08T03:00:12;14.60;;;14.10;;
3050;SDS011;1535;51.098;6.414;2024-03-08T03:02:40;14.60;;;14.10;;
3050;SDS011;1535;51.098;6.414;2024-03-08T03:05:09;14.23;;;13.73;;
3050;SDS011;1535;51.098;6.414;2024-03-08T03:07:36;14.47;;;13.97;;
3050;SDS011;1535;51.098;6.414;2024-03-08T03:10:03;14.30;;;13.80;;
3050;SDS011;1535;51.098;6.414;2024-03-08T03:12:33;14.37;;;13.87;;
3050;SDS011;1535;51.098;6.414;2024-03-08T03:15:00;14.67;;;14.17;;
3050;SDS011;1535;51.098;6.414;2024-03-08T03:17:28;14.20;;;13.70;;
3050;SDS011;1535;51.098;6.414;2024-03-08T03:19:55;13.83;;;13.43;;
3050;SDS011;1535;51.098;6.414;2024-03-08T03:22:22;14.47;;;13.97;;
3050;SDS011;1535;51.098;6.414;2024-03-08T03:24:50;14.63;;;14.13;;
3050;SDS011;1535;51.098;6.414;2024-03-08T03:27:18;14.63;;;14.13;;
3050;SDS011;1535;51.098;6.414;2024-03-08T03:29:46;14.30;;;13.80;;
3050;SDS011;1535;51.098;6.414;2024-03-08T03:32:14;14.47;;;13.97;;
3050;SDS011;1535;51.098;6.414;2024-03-08T03:34:43;14.20;;;13.70;;
3050;SDS011;1535;51.098;6.414;2024-03-08T03:37:11;14.33;;;13.83;;
3050;SDS011;1535;51.098;6.414;2024-03-08T03:39:38;14.43;;;13.93;;
3050;SDS011;1535;51.098;6.414;2024-03-08T03:42:13;14.27;;;13.77;;
3050;SDS011;1535;51.098;6.414;2024-03-08T03:44:41;14.20;;;13.70;;
3050;SDS011;1535;51.098;6.414;2024-03-08T03:47:10;14.20;;;13.70;;
3050;SDS011;1535;51.098;6.414;2024-03-08T03:49:38;14.37;;;13.87;;
3050;SDS011;1535;51.098;6.414;2024-03-08T03:52:05;14.20;;;13.70;;
3050;SDS011;1535;51.098;6.414;2024-03-08T03:54:32;14.20;;;13.70;;
3050;SDS011;1535;51.098;6.414;2024-03-08T03:57:00;14.53;;;14.03;;
3050;SDS011;1535;51.098;6.414;2024-03-08T03:59:27;14.37;;;13.87;;
3050;SDS011;1535;51.098;6.414;2024-03-08T04:01:54;14.50;;;14.00;;
3050;SDS011;1535;51.098;6.414;2024-03-08T04:04:23;14.33;;;13.83;;
3050;SDS011;1535;51.098;6.414;2024-03-08T04:06:50;14.73;;;14.23;;
3050;SDS011;1535;51.098;6.414;2024-03-08T04:09:16;14.43;;;13.93;;
3050;SDS011;1535;51.098;6.414;2024-03-08T04:11:44;14.30;;;13.80;;
3050;SDS011;1535;51.098;6.414;2024-03-08T04:14:11;14.63;;;14.13;;
3050;SDS011;1535;51.098;6.414;2024-03-08T04:16:38;14.33;;;13.83;;
3050;SDS011;1535;51.098;6.414;2024-03-08T04:19:06;15.10;;;14.60;;
3050;SDS011;1535;51.098;6.414;2024-03-08T04:21:36;14.67;;;14.17;;
3050;SDS011;1535;51.098;6.414;2024-03-08T04:24:04;14.90;;;14.40;;
3050;SDS011;1535;51.098;6.414;2024-03-08T04:26:31;14.30;;;13.80;;
3050;SDS011;1535;51.098;6.414;2024-03-08T04:28:59;14.60;;;14.10;;
3050;SDS011;1535;51.098;6.414;2024-03-08T04:31:26;13.97;;;13.57;;
3050;SDS011;1535;51.098;6.414;2024-03-08T04:33:53;13.80;;;13.40;;
3050;SDS011;1535;51.098;6.414;2024-03-08T04:36:20;14.17;;;13.67;;
3050;SDS011;1535;51.098;6.414;2024-03-08T04:38:51;14.40;;;13.90;;
3050;SDS011;1535;51.098;6.414;2024-03-08T04:41:18;14.43;;;13.93;;
3050;SDS011;1535;51.098;6.414;2024-03-08T04:43:46;14.33;;;13.83;;
3050;SDS011;1535;51.098;6.414;2024-03-08T04:46:13;14.13;;;13.63;;
3050;SDS011;1535;51.098;6.414;2024-03-08T04:48:41;14.50;;;14.00;;
3050;SDS011;1535;51.098;6.414;2024-03-08T04:51:08;14.40;;;13.90;;
3050;SDS011;1535;51.098;6.414;2024-03-08T04:53:36;14.17;;;13.67;;
3050;SDS011;1535;51.098;6.414;2024-03-08T04:56:05;14.47;;;13.97;;
3050;SDS011;1535;51.098;6.414;2024-03-08T04:58:32;14.17;;;13.67;;
3050;SDS011;1535;51.098;6.414;2024-03-08T05:01:00;14.80;;;14.30;;
3050;SDS011;1535;51.098;6.414;2024-03-08T05:03:27;14.70;;;14.20;;
3050;SDS011;1535;51.098;6.414;2024-03-08T05:05:55;14.60;;;14.10;;
3050;SDS011;1535;51.098;6.414;2024-03-08T05:08:22;14.73;;;14.23;;
3050;SDS011;1535;51.098;6.414;2024-03-08T05:10:49;14.70;;;14.20;;
3050;SDS011;1535;51.098;6.414;2024-03-08T05:13:18;14.67;;;14.17;;
3050;SDS011;1535;51.098;6.414;2024-03-08T05:15:47;14.97;;;14.47;;
3050;SDS011;1535;51.098;6.414;2024-03-08T05:18:15;15.17;;;14.60;;
3050;SDS011;1535;51.098;6.414;2024-03-08T05:20:42;14.70;;;14.20;;
3050;SDS011;1535;51.098;6.414;2024-03-08T05:23:09;15.00;;;14.50;;
3050;SDS011;1535;51.098;6.414;2024-03-08T05:25:37;14.70;;;14.20;;
3050;SDS011;1535;51.098;6.414;2024-03-08T05:28:04;14.30;;;13.80;;
3050;SDS011;1535;51.098;6.414;2024-03-08T05:30:33;14.47;;;13.97;;
3050;SDS011;1535;51.098;6.414;2024-03-08T05:33:01;15.07;;;14.57;;
3050;SDS011;1535;51.098;6.414;2024-03-08T05:35:29;14.30;;;13.80;;
3050;SDS011;1535;51.098;6.414;2024-03-08T05:37:57;14.60;;;14.10;;
3050;SDS011;1535;51.098;6.414;2024-03-08T05:40:24;14.73;;;14.23;;
3050;SDS011;1535;51.098;6.414;2024-03-08T05:42:51;14.90;;;14.40;;
3050;SDS011;1535;51.098;6.414;2024-03-08T05:45:19;14.60;;;14.10;;
3050;SDS011;1535;51.098;6.414;2024-03-08T05:47:47;14.77;;;14.27;;
3050;SDS011;1535;51.098;6.414;2024-03-08T05:50:16;14.73;;;14.23;;
3050;SDS011;1535;51.098;6.414;2024-03-08T05:52:45;14.63;;;14.13;;
3050;SDS011;1535;51.098;6.414;2024-03-08T05:55:13;15.30;;;14.70;;
3050;SDS011;1535;51.098;6.414;2024-03-08T05:57:40;14.70;;;14.20;;
3050;SDS011;1535;51.098;6.414;2024-03-08T06:00:08;14.83;;;14.33;;
3050;SDS011;1535;51.098;6.414;2024-03-08T06:02:36;14.97;;;14.43;;
3050;SDS011;1535;51.098;6.414;2024-03-08T06:05:08;14.80;;;14.30;;
3050;SDS011;1535;51.098;6.414;2024-03-08T06:07:36;14.50;;;14.00;;
3050;SDS011;1535;51.098;6.414;2024-03-08T06:10:05;14.67;;;14.17;;
3050;SDS011;1535;51.098;6.414;2024-03-08T06:12:35;14.40;;;13.90;;
3050;SDS011;1535;51.098;6.414;2024-03-08T06:15:05;14.40;;;13.90;;
3050;SDS011;1535;51.098;6.414;2024-03-08T06:17:33;15.20;;;14.60;;
3050;SDS011;1535;51.098;6.414;2024-03-08T06:20:01;15.33;;;14.73;;
3050;SDS011;1535;51.098;6.414;2024-03-08T06:22:30;14.40;;;13.90;;
3050;SDS011;1535;51.098;6.414;2024-03-08T06:24:58;15.00;;;14.50;;
3050;SDS011;1535;51.098;6.414;2024-03-08T06:27:25;14.80;;;14.30;;
3050;SDS011;1535;51.098;6.414;2024-03-08T06:29:52;15.20;;;14.60;;
3050;SDS011;1535;51.098;6.414;2024-03-08T06:32:19;14.43;;;13.93;;
3050;SDS011;1535;51.098;6.414;2024-03-08T06:34:46;14.43;;;13.93;;
3050;SDS011;1535;51.098;6.414;2024-03-08T06:37:15;14.67;;;14.17;;
3050;SDS011;1535;51.098;6.414;2024-03-08T06:39:48;13.90;;;13.40;;
3050;SDS011;1535;51.098;6.414;2024-03-08T06:42:16;14.13;;;13.63;;
3050;SDS011;1535;51.098;6.414;2024-03-08T06:44:44;15.40;;;14.80;;
3050;SDS011;1535;51.098;6.414;2024-03-08T06:47:14;14.30;;;13.80;;
3050;SDS011;1535;51.098;6.414;2024-03-08T06:49:41;14.27;;;13.77;;
3050;SDS011;1535;51.098;6.414;2024-03-08T06:52:09;14.23;;;13.73;;
3050;SDS011;1535;51.098;6.414;2024-03-08T06:54:37;14.93;;;14.43;;
3050;SDS011;1535;51.098;6.414;2024-03-08T06:57:07;14.40;;;13.90;;
3050;SDS011;1535;51.098;6.414;2024-03-08T06:59:35;13.93;;;13.43;;
3050;SDS011;1535;51.098;6.414;2024-03-08T07:02:02;14.23;;;13.73;;
3050;SDS011;1535;51.098;6.414;2024-03-08T07:04:30;14.37;;;13.87;;
3050;SDS011;1535;51.098;6.414;2024-03-08T07:06:58;13.87;;;13.37;;
3050;SDS011;1535;51.098;6.414;2024-03-08T07:09:27;14.20;;;13.70;;
3050;SDS011;1535;51.098;6.414;2024-03-08T07:11:55;13.70;;;13.27;;
3050;SDS011;1535;51.098;6.414;2024-03-08T07:14:24;14.20;;;13.70;;
3050;SDS011;1535;51.098;6.414;2024-03-08T07:16:51;13.90;;;13.40;;
3050;SDS011;1535;51.098;6.414;2024-03-08T07:19:20;13.90;;;13.40;;
3050;SDS011;1535;51.098;6.414;2024-03-08T07:21:49;13.97;;;13.47;;
3050;SDS011;1535;51.098;6.414;2024-03-08T07:24:16;14.13;;;13.63;;
3050;SDS011;1535;51.098;6.414;2024-03-08T07:27:03;14.90;;;14.40;;
3050;SDS011;1535;51.098;6.414;2024-03-08T07:29:31;14.60;;;14.10;;
3050;SDS011;1535;51.098;6.414;2024-03-08T07:31:58;15.03;;;14.53;;
3050;SDS011;1535;51.098;6.414;2024-03-08T07:34:37;15.90;;;15.30;;
3050;SDS011;1535;51.098;6.414;2024-03-08T07:37:05;15.63;;;15.03;;
3050;SDS011;1535;51.098;6.414;2024-03-08T07:39:36;14.83;;;14.33;;
3050;SDS011;1535;51.098;6.414;2024-03-08T07:42:03;14.50;;;14.00;;
3050;SDS011;1535;51.098;6.414;2024-03-08T07:44:31;15.37;;;14.77;;
3050;SDS011;1535;51.098;6.414;2024-03-08T07:46:59;15.67;;;15.07;;
3050;SDS011;1535;51.098;6.414;2024-03-08T07:49:26;16.00;;;15.40;;
3050;SDS011;1535;51.098;6.414;2024-03-08T07:51:53;15.50;;;14.90;;
3050;SDS011;1535;51.098;6.414;2024-03-08T07:54:20;15.53;;;14.93;;
3050;SDS011;1535;51.098;6.414;2024-03-08T07:56:48;15.50;;;14.90;;
3050;SDS011;1535;51.098;6.414;2024-03-08T07:59:16;15.73;;;15.13;;
3050;SDS011;1535;51.098;6.414;2024-03-08T08:01:45;15.57;;;14.97;;
3050;SDS011;1535;51.098;6.414;2024-03-08T08:04:12;15.37;;;14.77;;
3050;SDS011;1535;51.098;6.414;2024-03-08T08:06:43;15.50;;;14.90;;
3050;SDS011;1535;51.098;6.414;2024-03-08T08:09:10;15.20;;;14.67;;
3050;SDS011;1535;51.098;6.414;2024-03-08T08:11:40;14.90;;;14.40;;
3050;SDS011;1535;51.098;6.414;2024-03-08T08:14:08;15.43;;;14.83;;
3050;SDS011;1535;51.098;6.414;2024-03-08T08:16:35;15.63;;;15.03;;
3050;SDS011;1535;51.098;6.414;2024-03-08T08:19:04;15.90;;;15.30;;
3050;SDS011;1535;51.098;6.414;2024-03-08T08:21:33;15.67;;;15.07;;
3050;SDS011;1535;51.098;6.414;2024-03-08T08:24:01;15.97;;;15.37;;
3050;SDS011;1535;51.098;6.414;2024-03-08T08:26:29;15.83;;;15.23;;
3050;SDS011;1535;51.098;6.414;2024-03-08T08:28:57;16.03;;;15.43;;
3050;SDS011;1535;51.098;6.414;2024-03-08T08:31:25;16.33;;;15.73;;
3050;SDS011;1535;51.098;6.414;2024-03-08T08:33:52;15.97;;;15.37;;
3050;SDS011;1535;51.098;6.414;2024-03-08T08:36:24;16.70;;;16.10;;
3050;SDS011;1535;51.098;6.414;2024-03-08T08:38:54;16.27;;;15.67;;
3050;SDS011;1535;51.098;6.414;2024-03-08T08:41:23;16.30;;;15.70;;
3050;SDS011;1535;51.098;6.414;2024-03-08T08:43:50;16.30;;;15.70;;
3050;SDS011;1535;51.098;6.414;2024-03-08T08:46:17;16.30;;;15.70;;
3050;SDS011;1535;51.098;6.414;2024-03-08T08:48:44;15.70;;;15.10;;
3050;SDS011;1535;51.098;6.414;2024-03-08T08:51:12;16.10;;;15.50;;
3050;SDS011;1535;51.098;6.414;2024-03-08T08:53:41;16.07;;;15.47;;
3050;SDS011;1535;51.098;6.414;2024-03-08T08:56:10;16.10;;;15.50;;
3050;SDS011;1535;51.098;6.414;2024-03-08T08:58:38;16.37;;;15.77;;
3050;SDS011;1535;51.098;6.414;2024-03-08T09:01:06;16.43;;;15.83;;
3050;SDS011;1535;51.098;6.414;2024-03-08T09:03:35;16.00;;;15.40;;
3050;SDS011;1535;51.098;6.414;2024-03-08T09:06:02;16.70;;;16.10;;
3050;SDS011;1535;51.098;6.414;2024-03-08T09:08:30;16.20;;;15.60;;
3050;SDS011;1535;51.098;6.414;2024-03-08T09:10:58;16.03;;;15.43;;
3050;SDS011;1535;51.098;6.414;2024-03-08T09:13:25;16.70;;;16.10;;
3050;SDS011;1535;51.098;6.414;2024-03-08T09:15:53;15.87;;;15.30;;
3050;SDS011;1535;51.098;6.414;2024-03-08T09:18:20;16.13;;;15.53;;
3050;SDS011;1535;51.098;6.414;2024-03-08T09:20:48;16.40;;;15.80;;
3050;SDS011;1535;51.098;6.414;2024-03-08T09:23:16;16.77;;;16.17;;
3050;SDS011;1535;51.098;6.414;2024-03-08T09:25:43;16.53;;;15.93;;
3050;SDS011;1535;51.098;6.414;2024-03-08T09:28:11;16.33;;;15.73;;
3050;SDS011;1535;51.098;6.414;2024-03-08T09:30:39;16.63;;;16.03;;
3050;SDS011;1535;51.098;6.414;2024-03-08T09:33:06;16.50;;;15.90;;
3050;SDS011;1535;51.098;6.414;2024-03-08T09:35:34;16.70;;;16.10;;
3050;SDS011;1535;51.098;6.414;2024-03-08T09:38:02;16.10;;;15.50;;
3050;SDS011;1535;51.098;6.414;2024-03-08T09:40:30;16.30;;;15.70;;
3050;SDS011;1535;51.098;6.414;2024-03-08T09:42:57;16.43;;;15.83;;
3050;SDS011;1535;51.098;6.414;2024-03-08T09:45:25;16.50;;;15.90;;
3050;SDS011;1535;51.098;6.414;2024-03-08T09:47:54;15.83;;;15.33;;
3050;SDS011;1535;51.098;6.414;2024-03-08T09:50:21;15.80;;;15.30;;
3050;SDS011;1535;51.098;6.414;2024-03-08T09:52:49;15.50;;;15.00;;
3050;SDS011;1535;51.098;6.414;2024-03-08T09:55:16;15.97;;;15.47;;
3050;SDS011;1535;51.098;6.414;2024-03-08T09:57:47;16.20;;;15.70;;
3050;SDS011;1535;51.098;6.414;2024-03-08T10:00:41;16.00;;;15.50;;
3050;SDS011;1535;51.098;6.414;2024-03-08T10:03:08;15.87;;;15.37;;
3050;SDS011;1535;51.098;6.414;2024-03-08T10:05:36;15.80;;;15.30;;
3050;SDS011;1535;51.098;6.414;2024-03-08T10:08:04;16.30;;;15.70;;
3050;SDS011;1535;51.098;6.414;2024-03-08T10:10:33;15.83;;;15.33;;
3050;SDS011;1535;51.098;6.414;2024-03-08T10:13:01;15.43;;;14.93;;
3050;SDS011;1535;51.098;6.414;2024-03-08T10:15:28;16.03;;;15.47;;
3050;SDS011;1535;51.098;6.414;2024-03-08T10:17:57;15.33;;;14.83;;
3050;SDS011;1535;51.098;6.414;2024-03-08T10:20:24;15.63;;;15.13;;
3050;SDS011;1535;51.098;6.414;2024-03-08T10:22:52;15.37;;;14.87;;
3050;SDS011;1535;51.098;6.414;2024-03-08T10:25:19;15.60;;;15.10;;
3050;SDS011;1535;51.098;6.414;2024-03-08T10:27:47;16.13;;;15.53;;
3050;SDS011;1535;51.098;6.414;2024-03-08T10:30:15;15.10;;;14.60;;
3050;SDS011;1535;51.098;6.414;2024-03-08T10:32:45;15.63;;;15.13;;
3050;SDS011;1535;51.098;6.414;2024-03-08T10:35:13;15.30;;;14.80;;
3050;SDS011;1535;51.098;6.414;2024-03-08T10:37:44;15.70;;;15.20;;
3050;SDS011;1535;51.098;6.414;2024-03-08T10:40:13;15.97;;;15.47;;
3050;SDS011;1535;51.098;6.414;2024-03-08T10:42:46;15.53;;;15.03;;
3050;SDS011;1535;51.098;6.414;2024-03-08T10:45:15;15.10;;;14.60;;
3050;SDS011;1535;51.098;6.414;2024-03-08T10:47:42;15.80;;;15.27;;
3050;SDS011;1535;51.098;6.414;2024-03-08T10:50:16;15.33;;;14.83;;
3050;SDS011;1535;51.098;6.414;2024-03-08T10:52:47;15.30;;;14.80;;
3050;SDS011;1535;51.098;6.414;2024-03-08T10:55:15;15.83;;;15.33;;
3050;SDS011;1535;51.098;6.414;2024-03-08T10:57:42;15.40;;;14.90;;
3050;SDS011;1535;51.098;6.414;2024-03-08T11:00:10;15.53;;;15.03;;
3050;SDS011;1535;51.098;6.414;2024-03-08T11:02:38;15.33;;;14.83;;
3050;SDS011;1535;51.098;6.414;2024-03-08T11:05:06;15.40;;;14.90;;
3050;SDS011;1535;51.098;6.414;2024-03-08T11:07:41;15.90;;;15.40;;
3050;SDS011;1535;51.098;6.414;2024-03-08T11:10:18;15.13;;;14.63;;
3050;SDS011;1535;51.098;6.414;2024-03-08T11:12:45;15.47;;;14.97;;
3050;SDS011;1535;51.098;6.414;2024-03-08T11:15:13;15.63;;;15.13;;
3050;SDS011;1535;51.098;6.414;2024-03-08T11:17:47;15.33;;;14.83;;
3050;SDS011;1535;51.098;6.414;2024-03-08T11:20:15;15.23;;;14.73;;
3050;SDS011;1535;51.098;6.414;2024-03-08T11:22:47;15.10;;;14.60;;
3050;SDS011;1535;51.098;6.414;2024-03-08T11:25:33;14.93;;;14.43;;
3050;SDS011;1535;51.098;6.414;2024-03-08T11:28:11;15.20;;;14.70;;
3050;SDS011;1535;51.098;6.414;2024-03-08T11:30:43;15.50;;;15.00;;
3050;SDS011;1535;51.098;6.414;2024-03-08T11:33:12;15.60;;;15.10;;
3050;SDS011;1535;51.098;6.414;2024-03-08T11:35:39;15.30;;;14.80;;
3050;SDS011;1535;51.098;6.414;2024-03-08T11:38:08;16.00;;;15.40;;
3050;SDS011;1535;51.098;6.414;2024-03-08T11:40:35;15.47;;;14.97;;
3050;SDS011;1535;51.098;6.414;2024-03-08T11:43:05;16.00;;;15.40;;
3050;SDS011;1535;51.098;6.414;2024-03-08T11:45:32;15.97;;;15.37;;
3050;SDS011;1535;51.098;6.414;2024-03-08T11:48:01;15.73;;;15.23;;
3050;SDS011;1535;51.098;6.414;2024-03-08T11:50:29;16.10;;;15.60;;
3050;SDS011;1535;51.098;6.414;2024-03-08T11:53:01;16.60;;;16.00;;
3050;SDS011;1535;51.098;6.414;2024-03-08T11:55:30;16.60;;;16.00;;
3050;SDS011;1535;51.098;6.414;2024-03-08T11:58:01;15.40;;;14.90;;
3050;SDS011;1535;51.098;6.414;2024-03-08T12:00:29;16.67;;;16.07;;
3050;SDS011;1535;51.098;6.414;2024-03-08T12:03:03;16.30;;;15.70;;
3050;SDS011;1535;51.098;6.414;2024-03-08T12:05:31;16.33;;;15.73;;
3050;SDS011;1535;51.098;6.414;2024-03-08T12:07:59;15.70;;;15.20;;
3050;SDS011;1535;51.098;6.414;2024-03-08T12:10:26;16.43;;;15.83;;
3050;SDS011;1535;51.098;6.414;2024-03-08T12:12:56;15.50;;;15.00;;
3050;SDS011;1535;51.098;6.414;2024-03-08T12:15:25;15.30;;;14.80;;
3050;SDS011;1535;51.098;6.414;2024-03-08T12:17:53;15.30;;;14.80;;
3050;SDS011;1535;51.098;6.414;2024-03-08T12:20:21;15.90;;;15.37;;
3050;SDS011;1535;51.098;6.414;2024-03-08T12:22:48;15.90;;;15.33;;
3050;SDS011;1535;51.098;6.414;2024-03-08T12:25:17;15.57;;;15.00;;
3050;SDS011;1535;51.098;6.414;2024-03-08T12:27:45;16.00;;;15.40;;
3050;SDS011;1535;51.098;6.414;2024-03-08T12:30:19;15.90;;;15.30;;
3050;SDS011;1535;51.098;6.414;2024-03-08T12:32:51;16.03;;;15.43;;
3050;SDS011;1535;51.098;6.414;2024-03-08T12:35:19;15.70;;;15.10;;
3050;SDS011;1535;51.098;6.414;2024-03-08T12:37:48;15.93;;;15.33;;
3050;SDS011;1535;51.098;6.414;2024-03-08T12:40:16;16.23;;;15.63;;
3050;SDS011;1535;51.098;6.414;2024-03-08T12:42:43;15.70;;;15.10;;
3050;SDS011;1535;51.098;6.414;2024-03-08T12:45:12;15.90;;;15.30;;
3050;SDS011;1535;51.098;6.414;2024-03-08T12:47:41;15.90;;;15.30;;
3050;SDS011;1535;51.098;6.414;2024-03-08T12:50:09;15.50;;;15.00;;
3050;SDS011;1535;51.098;6.414;2024-03-08T12:52:36;15.87;;;15.27;;
3050;SDS011;1535;51.098;6.414;2024-03-08T12:55:04;15.90;;;15.30;;
3050;SDS011;1535;51.098;6.414;2024-03-08T12:57:33;15.67;;;15.13;;
3050;SDS011;1535;51.098;6.414;2024-03-08T13:00:01;15.30;;;14.80;;
3050;SDS011;1535;51.098;6.414;2024-03-08T13:02:29;15.30;;;14.80;;
3050;SDS011;1535;51.098;6.414;2024-03-08T13:04:58;15.47;;;14.97;;
3050;SDS011;1535;51.098;6.414;2024-03-08T13:07:26;15.70;;;15.10;;
3050;SDS011;1535;51.098;6.414;2024-03-08T13:09:53;15.20;;;14.70;;
3050;SDS011;1535;51.098;6.414;2024-03-08T13:12:21;15.60;;;15.00;;
3050;SDS011;1535;51.098;6.414;2024-03-08T13:14:49;15.90;;;15.30;;
3050;SDS011;1535;51.098;6.414;2024-03-08T13:17:16;15.50;;;15.00;;
3050;SDS011;1535;51.098;6.414;2024-03-08T13:19:44;15.30;;;14.80;;
3050;SDS011;1535;51.098;6.414;2024-03-08T13:22:12;15.20;;;14.70;;
3050;SDS011;1535;51.098;6.414;2024-03-08T13:24:41;15.00;;;14.50;;
3050;SDS011;1535;51.098;6.414;2024-03-08T13:27:10;14.70;;;14.20;;
3050;SDS011;1535;51.098;6.414;2024-03-08T13:29:45;15.03;;;14.53;;
3050;SDS011;1535;51.098;6.414;2024-03-08T13:32:13;15.00;;;14.50;;
3050;SDS011;1535;51.098;6.414;2024-03-08T13:34:40;15.40;;;14.90;;
3050;SDS011;1535;51.098;6.414;2024-03-08T13:37:07;15.30;;;14.80;;
3050;SDS011;1535;51.098;6.414;2024-03-08T13:39:36;15.57;;;15.07;;
3050;SDS011;1535;51.098;6.414;2024-03-08T13:42:08;15.53;;;15.03;;
3050;SDS011;1535;51.098;6.414;2024-03-08T13:44:38;15.57;;;15.07;;
3050;SDS011;1535;51.098;6.414;2024-03-08T13:47:05;15.10;;;14.60;;
3050;SDS011;1535;51.098;6.414;2024-03-08T13:49:33;16.20;;;15.63;;
3050;SDS011;1535;51.098;6.414;2024-03-08T13:52:01;15.40;;;14.90;;
3050;SDS011;1535;51.098;6.414;2024-03-08T13:54:29;15.50;;;15.00;;
3050;SDS011;1535;51.098;6.414;2024-03-08T13:56:58;15.60;;;15.10;;
3050;SDS011;1535;51.098;6.414;2024-03-08T13:59:25;16.10;;;15.50;;
3050;SDS011;1535;51.098;6.414;2024-03-08T14:01:54;15.60;;;15.10;;
3050;SDS011;1535;51.098;6.414;2024-03-08T14:04:23;14.93;;;14.43;;
3050;SDS011;1535;51.098;6.414;2024-03-08T14:06:51;15.70;;;15.20;;
3050;SDS011;1535;51.098;6.414;2024-03-08T14:09:22;15.30;;;14.80;;
3050;SDS011;1535;51.098;6.414;2024-03-08T14:11:49;15.57;;;15.07;;
3050;SDS011;1535;51.098;6.414;2024-03-08T14:14:20;15.70;;;15.20;;
3050;SDS011;1535;51.098;6.414;2024-03-08T14:16:48;16.03;;;15.47;;
3050;SDS011;1535;51.098;6.414;2024-03-08T14:19:17;16.27;;;15.67;;
3050;SDS011;1535;51.098;6.414;2024-03-08T14:21:45;15.97;;;15.37;;
3050;SDS011;1535;51.098;6.414;2024-03-08T14:24:13;15.90;;;15.30;;
3050;SDS011;1535;51.098;6.414;2024-03-08T14:26:40;16.10;;;15.50;;
3050;SDS011;1535;51.098;6.414;2024-03-08T14:29:08;15.80;;;15.30;;
3050;SDS011;1535;51.098;6.414;2024-03-08T14:31:37;15.63;;;15.13;;
3050;SDS011;1535;51.098;6.414;2024-03-08T14:34:05;15.60;;;15.10;;
3050;SDS011;1535;51.098;6.414;2024-03-08T14:36:33;15.80;;;15.30;;
3050;SDS011;1535;51.098;6.414;2024-03-08T14:39:00;16.17;;;15.57;;
3050;SDS011;1535;51.098;6.414;2024-03-08T14:41:27;16.20;;;15.60;;
3050;SDS011;1535;51.098;6.414;2024-03-08T14:43:55;16.17;;;15.57;;
3050;SDS011;1535;51.098;6.414;2024-03-08T14:46:22;15.90;;;15.40;;
3050;SDS011;1535;51.098;6.414;2024-03-08T14:48:51;15.77;;;15.27;;
3050;SDS011;1535;51.098;6.414;2024-03-08T14:51:18;15.70;;;15.20;;
3050;SDS011;1535;51.098;6.414;2024-03-08T14:53:47;15.90;;;15.40;;